Time;durP1;ratioP1;P1;durP2;ratioP2;P2;SDS_P1;SDS_P2;PMS_P1;PMS_P2;Temp;Humidity;BMP_temperature;BMP_pressure;BME280_temperature;BME280_humidity;BME280_pressure;Samples;Min_cycle;Max_cycle;Signal;HPM_P1;HPM_P2
2021/06/24 00:00:45;;;;;;;2.17;2.03;;;17.10;99.90;;;;;;4889537;29;20412;-80
2021/06/24 00:03:11;;;;;;;2.28;2.10;;;17.10;99.90;;;;;;4883762;29;20436;-81
2021/06/24 00:05:37;;;;;;;2.20;2.00;;;17.10;99.90;;;;;;4890112;29;20433;-79
2021/06/24 00:08:03;;;;;;;2.47;2.28;;;17.10;99.90;;;;;;4901325;29;20429;-78
2021/06/24 00:10:28;;;;;;;2.30;2.10;;;17.10;99.90;;;;;;4873758;29;21178;-77
2021/06/24 00:12:54;;;;;;;2.00;1.90;;;17.10;99.90;;;;;;4888834;29;20407;-78
2021/06/24 00:15:20;;;;;;;2.30;2.10;;;17.00;99.90;;;;;;4863009;29;20401;-80
2021/06/24 00:17:45;;;;;;;2.27;2.07;;;17.10;99.90;;;;;;4905715;29;20422;-78
2021/06/24 00:20:12;;;;;;;2.47;2.28;;;17.00;99.90;;;;;;4888882;29;20974;-78
2021/06/24 00:22:37;;;;;;;2.17;2.00;;;17.10;99.90;;;;;;4889130;29;20412;-79
2021/06/24 00:25:03;;;;;;;2.10;2.00;;;17.10;99.90;;;;;;4895929;29;20417;-78
2021/06/24 00:27:29;;;;;;;2.33;2.10;;;17.10;99.90;;;;;;4869499;29;20404;-79
2021/06/24 00:29:55;;;;;;;2.23;2.07;;;17.20;99.90;;;;;;4898108;29;20601;-79
2021/06/24 00:32:20;;;;;;;2.17;1.97;;;17.10;99.90;;;;;;4903974;29;20405;-78
2021/06/24 00:34:46;;;;;;;2.55;2.08;;;17.10;99.90;;;;;;4863651;29;20432;-78
2021/06/24 00:37:11;;;;;;;1.90;1.80;;;17.10;99.90;;;;;;4875045;29;20404;-80
2021/06/24 00:39:37;;;;;;;2.77;2.27;;;17.10;99.90;;;;;;4888690;29;20412;-79
2021/06/24 00:42:03;;;;;;;2.45;2.25;;;17.10;99.90;;;;;;4888420;29;20461;-79
2021/06/24 00:44:29;;;;;;;2.20;2.00;;;17.10;99.90;;;;;;4885374;29;20416;-79
2021/06/24 00:46:55;;;;;;;2.00;1.90;;;17.00;99.90;;;;;;4918662;29;20397;-79
2021/06/24 00:49:21;;;;;;;1.88;1.77;;;17.00;99.90;;;;;;4888175;29;20458;-79
2021/06/24 00:51:46;;;;;;;2.40;2.20;;;17.00;99.90;;;;;;4881915;29;20409;-78
2021/06/24 00:54:13;;;;;;;2.40;2.10;;;17.00;99.90;;;;;;4894388;29;20441;-78
2021/06/24 00:56:39;;;;;;;2.30;2.00;;;17.10;99.90;;;;;;4904546;29;20932;-78
2021/06/24 00:59:04;;;;;;;2.30;2.10;;;17.10;99.90;;;;;;4889281;29;20409;-78
2021/06/24 01:01:32;;;;;;;2.83;2.33;;;17.20;99.90;;;;;;4861631;29;20513;-79
2021/06/24 01:03:59;;;;;;;3.83;2.15;;;17.10;99.90;;;;;;4893986;29;21042;-79
2021/06/24 01:06:24;;;;;;;2.10;2.00;;;17.10;99.90;;;;;;4889441;29;20535;-78
2021/06/24 01:08:50;;;;;;;2.10;1.90;;;17.10;99.90;;;;;;4885125;29;20449;-78
2021/06/24 01:11:18;;;;;;;4.00;2.20;;;17.10;99.90;;;;;;4886893;29;20425;-79
2021/06/24 01:13:44;;;;;;;2.28;2.13;;;17.10;99.90;;;;;;4884070;29;20424;-79
2021/06/24 01:16:11;;;;;;;3.05;2.45;;;17.10;99.90;;;;;;4872383;29;20445;-79
2021/06/24 01:18:37;;;;;;;2.40;2.20;;;17.10;99.90;;;;;;4905495;29;20563;-79
2021/06/24 01:21:03;;;;;;;3.40;2.20;;;17.10;99.90;;;;;;4886310;29;20409;-81
2021/06/24 01:23:35;;;;;;;2.35;2.15;;;17.20;99.90;;;;;;4871524;29;20417;-78
2021/06/24 01:26:01;;;;;;;2.30;2.10;;;17.10;99.90;;;;;;4872165;29;20436;-80
2021/06/24 01:28:27;;;;;;;2.38;1.95;;;17.10;99.90;;;;;;4883860;29;20915;-78
2021/06/24 01:30:53;;;;;;;2.50;2.27;;;17.10;99.90;;;;;;4896367;29;20466;-79
2021/06/24 01:33:18;;;;;;;1.75;1.65;;;17.10;99.90;;;;;;4878563;29;20425;-80
2021/06/24 01:35:44;;;;;;;1.90;1.80;;;17.10;99.90;;;;;;4918839;29;20405;-79
2021/06/24 01:38:10;;;;;;;3.30;2.20;;;17.10;99.90;;;;;;4873060;29;20471;-80
2021/06/24 01:40:43;;;;;;;2.10;2.00;;;17.10;99.90;;;;;;4875064;29;20472;-79
2021/06/24 01:43:09;;;;;;;2.50;2.30;;;17.00;99.90;;;;;;4871287;29;20412;-78
2021/06/24 01:45:51;;;;;;;2.20;1.80;;;17.00;99.90;;;;;;4918467;29;20405;-76
2021/06/24 01:48:17;;;;;;;4.03;2.30;;;17.00;99.90;;;;;;4886470;29;20417;-77
2021/06/24 01:50:43;;;;;;;2.53;2.33;;;17.00;99.90;;;;;;4904868;29;21142;-78
2021/06/24 01:53:09;;;;;;;2.92;2.20;;;16.80;99.90;;;;;;4881537;29;20494;-81
2021/06/24 01:55:36;;;;;;;2.45;2.25;;;16.70;99.90;;;;;;4918099;29;20409;-77
2021/06/24 01:58:08;;;;;;;2.10;1.98;;;16.70;99.90;;;;;;4905384;29;20949;-83
2021/06/24 02:00:58;;;;;;;2.40;2.03;;;16.60;99.90;;;;;;4905557;29;20485;-76
2021/06/24 02:03:24;;;;;;;2.33;2.13;;;16.60;99.90;;;;;;4885759;29;20415;-77
2021/06/24 02:05:51;;;;;;;2.85;2.10;;;16.60;99.90;;;;;;4894636;29;20397;-76
2021/06/24 02:08:22;;;;;;;2.50;2.30;;;16.60;99.90;;;;;;4870581;29;20665;-80
2021/06/24 02:11:03;;;;;;;2.53;2.33;;;16.60;99.90;;;;;;4871713;29;20413;-78
2021/06/24 02:13:30;;;;;;;1.98;1.88;;;16.60;99.90;;;;;;4871100;29;20424;-77
2021/06/24 02:15:56;;;;;;;2.42;2.22;;;16.60;99.90;;;;;;4904491;29;20468;-76
2021/06/24 02:18:22;;;;;;;3.15;2.08;;;16.60;99.90;;;;;;4909502;29;20930;-76
2021/06/24 02:20:49;;;;;;;2.70;2.40;;;16.60;99.90;;;;;;4890001;29;20476;-76
2021/06/24 02:23:29;;;;;;;2.42;2.22;;;16.50;99.90;;;;;;4887936;29;20440;-79
2021/06/24 02:26:05;;;;;;;2.67;2.47;;;16.50;99.90;;;;;;4892737;29;20408;-80
2021/06/24 02:28:56;;;;;;;2.83;2.30;;;16.50;99.90;;;;;;4888264;29;20454;-79
2021/06/24 02:31:32;;;;;;;2.07;1.97;;;16.40;99.90;;;;;;4887857;29;20406;-79
2021/06/24 02:34:05;;;;;;;3.05;2.33;;;16.50;99.90;;;;;;4899496;29;20883;-80
2021/06/24 02:36:43;;;;;;;2.42;2.22;;;16.50;99.90;;;;;;4890869;29;20416;-80
2021/06/24 02:39:09;;;;;;;2.60;2.40;;;16.50;99.90;;;;;;4875953;29;20435;-79
2021/06/24 02:41:36;;;;;;;2.22;2.13;;;16.50;99.90;;;;;;4888501;29;20402;-81
2021/06/24 02:44:04;;;;;;;2.63;2.42;;;16.40;99.90;;;;;;4881990;29;20405;-80
2021/06/24 02:46:30;;;;;;;3.40;2.50;;;16.30;99.90;;;;;;4875478;29;20413;-82
2021/06/24 02:48:56;;;;;;;2.70;2.50;;;16.30;99.90;;;;;;4903788;29;20539;-79
2021/06/24 02:51:51;;;;;;;4.28;2.60;;;16.30;99.90;;;;;;4882304;29;20779;-81
2021/06/24 02:54:18;;;;;;;3.25;2.95;;;16.10;99.90;;;;;;4911781;29;20407;-81
2021/06/24 02:56:45;;;;;;;2.88;2.63;;;16.10;99.90;;;;;;4892612;29;20405;-79
2021/06/24 02:59:29;;;;;;;2.58;2.38;;;16.00;99.90;;;;;;4894555;29;20405;-80
2021/06/24 03:01:57;;;;;;;2.35;2.15;;;16.00;99.90;;;;;;4883666;29;20461;-80
2021/06/24 03:04:28;;;;;;;4.00;2.47;;;16.00;99.90;;;;;;4892935;29;21457;-78
2021/06/24 03:06:54;;;;;;;3.20;2.70;;;16.00;99.90;;;;;;4887583;29;20443;-80
2021/06/24 03:09:23;;;;;;;3.05;2.50;;;16.00;99.90;;;;;;4879082;29;20419;-81
2021/06/24 03:11:49;;;;;;;3.28;2.75;;;16.00;99.90;;;;;;4898417;29;20483;-79
2021/06/24 03:14:15;;;;;;;5.35;2.60;;;15.90;99.90;;;;;;4866126;29;21130;-80
2021/06/24 03:16:43;;;;;;;3.20;2.50;;;16.00;99.90;;;;;;4888719;29;20448;-80
2021/06/24 03:19:15;;;;;;;3.65;2.50;;;16.00;99.90;;;;;;4897112;29;20413;-81
2021/06/24 03:21:52;;;;;;;2.55;2.35;;;16.00;99.90;;;;;;4875156;29;20474;-79
2021/06/24 03:24:18;;;;;;;2.50;2.30;;;16.00;99.90;;;;;;4867045;29;20413;-80
2021/06/24 03:26:48;;;;;;;2.70;2.50;;;16.00;99.90;;;;;;4889976;29;20429;-85
2021/06/24 03:29:14;;;;;;;2.58;2.38;;;16.00;99.90;;;;;;4875080;29;20483;-79
2021/06/24 03:31:46;;;;;;;2.58;2.38;;;16.10;99.90;;;;;;4873077;29;20411;-84
2021/06/24 03:34:15;;;;;;;3.20;2.50;;;16.10;99.90;;;;;;4903593;29;20489;-81
2021/06/24 03:36:42;;;;;;;2.85;2.53;;;16.10;99.90;;;;;;4859381;29;21146;-78
2021/06/24 03:39:08;;;;;;;3.00;2.70;;;16.10;99.90;;;;;;4893156;29;20488;-79
2021/06/24 03:41:37;;;;;;;3.60;3.30;;;16.10;99.90;;;;;;4894750;29;20421;-78
2021/06/24 03:44:05;;;;;;;4.15;2.72;;;16.10;99.90;;;;;;4893333;29;20939;-79
2021/06/24 03:46:33;;;;;;;2.90;2.60;;;16.00;99.90;;;;;;4879364;29;20485;-80
2021/06/24 03:48:58;;;;;;;2.90;2.60;;;16.00;99.90;;;;;;4884146;29;20973;-79
2021/06/24 03:51:24;;;;;;;2.83;2.63;;;16.00;99.90;;;;;;4904266;29;20459;-79
2021/06/24 03:53:58;;;;;;;2.60;2.40;;;16.00;99.90;;;;;;4888933;29;20481;-79
2021/06/24 03:56:25;;;;;;;2.73;2.47;;;16.00;99.90;;;;;;4890309;29;20930;-79
2021/06/24 03:58:57;;;;;;;2.78;2.58;;;16.00;99.90;;;;;;4907896;29;20441;-80
2021/06/24 04:01:24;;;;;;;2.60;2.40;;;16.00;99.90;;;;;;4887851;29;20445;-79
2021/06/24 04:03:50;;;;;;;2.50;2.30;;;16.00;99.90;;;;;;4895917;29;20457;-80
2021/06/24 04:06:24;;;;;;;2.83;2.17;;;16.10;99.90;;;;;;4877886;29;20416;-79
2021/06/24 04:08:52;;;;;;;2.75;2.55;;;16.10;99.90;;;;;;4884932;29;20508;-81
2021/06/24 04:11:22;;;;;;;2.97;2.70;;;16.10;99.90;;;;;;4894382;29;20976;-81
2021/06/24 04:13:54;;;;;;;2.60;2.40;;;16.20;99.90;;;;;;4904943;29;20478;-80
2021/06/24 04:16:59;;;;;;;3.42;2.70;;;16.20;99.90;;;;;;4853288;29;20408;-81
2021/06/24 04:19:24;;;;;;;2.60;2.40;;;16.10;99.90;;;;;;4866315;29;20408;-81
2021/06/24 04:21:52;;;;;;;2.65;2.45;;;16.10;99.90;;;;;;4881623;29;21006;-79
2021/06/24 04:24:19;;;;;;;3.20;2.90;;;16.20;99.90;;;;;;4887722;29;20537;-82
2021/06/24 04:26:45;;;;;;;2.70;2.50;;;16.20;99.90;;;;;;4888194;29;20476;-80
2021/06/24 04:29:15;;;;;;;3.05;2.80;;;16.20;99.90;;;;;;4899534;29;20448;-79
2021/06/24 04:31:41;;;;;;;3.03;2.77;;;16.20;99.90;;;;;;4879010;29;20922;-79
2021/06/24 04:34:07;;;;;;;4.65;2.85;;;16.10;99.90;;;;;;4916317;29;20448;-82
2021/06/24 04:36:35;;;;;;;2.95;2.65;;;16.10;99.90;;;;;;4891041;29;20405;-79
2021/06/24 04:39:12;;;;;;;2.58;2.38;;;16.10;99.90;;;;;;4891400;29;20401;-83
2021/06/24 04:41:38;;;;;;;2.85;2.65;;;16.10;99.90;;;;;;4890671;29;20410;-80
2021/06/24 04:44:07;;;;;;;2.88;2.67;;;16.10;99.90;;;;;;4891073;29;20916;-81
2021/06/24 04:46:35;;;;;;;2.22;2.10;;;16.10;99.90;;;;;;4858857;29;20413;-83
2021/06/24 04:49:03;;;;;;;4.22;2.95;;;16.10;99.90;;;;;;4889465;29;20468;-82
2021/06/24 04:51:47;;;;;;;2.92;2.70;;;16.10;99.90;;;;;;4899063;29;20413;-80
2021/06/24 04:54:22;;;;;;;3.00;2.72;;;16.10;99.90;;;;;;4890579;29;20428;-79
2021/06/24 04:56:48;;;;;;;3.20;2.90;;;16.20;99.90;;;;;;4905473;29;21181;-80
2021/06/24 04:59:16;;;;;;;2.70;2.50;;;16.20;99.90;;;;;;4905613;29;20420;-79
2021/06/24 05:02:02;;;;;;;4.15;2.67;;;16.20;99.90;;;;;;4878630;29;20441;-79
2021/06/24 05:05:08;;;;;;;3.00;2.80;;;16.20;99.90;;;;;;4886130;29;20418;-79
2021/06/24 05:07:37;;;;;;;2.80;2.60;;;16.30;99.90;;;;;;4887077;29;20407;-85
2021/06/24 05:10:04;;;;;;;3.70;2.50;;;16.30;99.90;;;;;;4890276;29;20404;-81
2021/06/24 05:12:29;;;;;;;2.70;2.50;;;16.30;99.90;;;;;;4899814;29;21183;-79
2021/06/24 05:14:55;;;;;;;2.38;2.25;;;16.30;99.90;;;;;;4903310;29;20394;-79
2021/06/24 05:17:20;;;;;;;2.60;2.40;;;16.30;99.90;;;;;;4885407;29;20929;-81
2021/06/24 05:19:46;;;;;;;2.90;2.27;;;16.40;99.90;;;;;;4881644;29;20950;-79
2021/06/24 05:22:12;;;;;;;3.15;2.85;;;16.30;99.90;;;;;;4897496;29;20553;-82
2021/06/24 05:24:40;;;;;;;2.83;2.63;;;16.30;99.90;;;;;;4892063;29;20985;-80
2021/06/24 05:27:06;;;;;;;2.97;2.67;;;16.30;99.90;;;;;;4888688;29;21125;-81
2021/06/24 05:29:32;;;;;;;3.00;2.70;;;16.30;99.90;;;;;;4888649;29;20409;-79
2021/06/24 05:31:58;;;;;;;2.67;2.47;;;16.30;99.90;;;;;;4876507;29;22011;-79
2021/06/24 05:34:23;;;;;;;2.43;2.23;;;16.30;99.90;;;;;;4893866;29;20463;-79
2021/06/24 05:36:49;;;;;;;2.67;2.30;;;16.40;99.90;;;;;;4871722;29;20478;-80
2021/06/24 05:39:14;;;;;;;3.10;2.63;;;16.40;99.90;;;;;;4890780;29;20424;-80
2021/06/24 05:41:40;;;;;;;2.83;2.63;;;16.40;99.90;;;;;;4878425;29;20414;-79
2021/06/24 05:44:06;;;;;;;2.70;2.50;;;16.40;99.90;;;;;;4892116;29;20414;-79
2021/06/24 05:46:31;;;;;;;3.67;2.28;;;16.40;99.90;;;;;;4857459;29;20410;-79
2021/06/24 05:48:57;;;;;;;3.40;2.50;;;16.40;99.90;;;;;;4871886;29;21177;-83
2021/06/24 05:51:23;;;;;;;3.25;2.28;;;16.50;99.90;;;;;;4877998;29;22165;-80
2021/06/24 05:53:49;;;;;;;3.53;2.40;;;16.50;99.90;;;;;;4891040;29;20792;-83
2021/06/24 05:56:15;;;;;;;2.83;2.50;;;16.50;99.90;;;;;;4890802;29;20422;-82
2021/06/24 05:58:41;;;;;;;2.35;2.25;;;16.60;99.90;;;;;;4874419;29;20417;-80
2021/06/24 06:01:06;;;;;;;3.47;2.63;;;16.70;99.90;;;;;;4883270;29;20417;-79
2021/06/24 06:03:32;;;;;;;3.55;2.80;;;16.70;99.90;;;;;;4885988;29;20411;-79
2021/06/24 06:05:58;;;;;;;4.03;2.80;;;16.80;99.90;;;;;;4887762;29;20447;-81
2021/06/24 06:08:23;;;;;;;2.40;2.20;;;16.60;99.90;;;;;;4902307;29;20482;-79
2021/06/24 06:10:49;;;;;;;2.67;2.47;;;16.60;99.90;;;;;;4884341;29;20441;-79
2021/06/24 06:13:15;;;;;;;2.73;2.53;;;16.60;99.90;;;;;;4889197;29;20948;-80
2021/06/24 06:15:47;;;;;;;3.17;2.60;;;16.70;99.90;;;;;;4892495;29;20403;-82
2021/06/24 06:18:17;;;;;;;3.03;2.67;;;16.60;99.90;;;;;;4891684;29;20401;-79
2021/06/24 06:20:44;;;;;;;2.90;2.70;;;16.70;99.90;;;;;;4878755;29;20461;-79
2021/06/24 06:23:10;;;;;;;2.60;2.40;;;16.70;99.90;;;;;;4862250;29;20435;-79
2021/06/24 06:25:36;;;;;;;2.40;2.20;;;16.80;99.90;;;;;;4890900;29;20494;-79
2021/06/24 06:28:01;;;;;;;4.50;2.37;;;16.90;99.90;;;;;;4900239;29;20425;-82
2021/06/24 06:30:27;;;;;;;2.67;2.45;;;17.00;99.90;;;;;;4906594;29;20424;-79
2021/06/24 06:32:53;;;;;;;2.60;2.40;;;17.10;99.90;;;;;;4880047;29;20433;-81
2021/06/24 06:35:19;;;;;;;2.50;2.30;;;17.20;99.90;;;;;;4890513;29;20405;-81
2021/06/24 06:37:44;;;;;;;2.53;2.33;;;17.40;99.90;;;;;;4893412;29;20404;-81
2021/06/24 06:40:12;;;;;;;2.88;2.58;;;17.50;99.90;;;;;;4876739;29;20899;-79
2021/06/24 06:42:38;;;;;;;2.72;2.47;;;17.60;99.90;;;;;;4893244;29;20401;-81
2021/06/24 06:45:04;;;;;;;3.38;2.70;;;17.70;99.90;;;;;;4908420;29;20398;-78
2021/06/24 06:47:30;;;;;;;3.10;2.50;;;17.80;99.90;;;;;;4857556;29;20736;-80
2021/06/24 06:49:55;;;;;;;2.10;2.00;;;17.90;99.90;;;;;;4891756;29;21029;-82
2021/06/24 06:52:21;;;;;;;3.05;2.75;;;18.20;99.90;;;;;;4876332;29;20533;-81
2021/06/24 06:54:47;;;;;;;3.65;2.50;;;18.30;99.90;;;;;;4900941;29;20472;-79
2021/06/24 06:57:12;;;;;;;2.57;2.30;;;18.40;99.90;;;;;;4924037;29;20481;-81
2021/06/24 06:59:38;;;;;;;2.92;2.67;;;18.50;99.90;;;;;;4908334;29;20425;-79
2021/06/24 07:02:04;;;;;;;2.88;2.20;;;18.70;99.90;;;;;;4890592;29;20402;-80
2021/06/24 07:04:29;;;;;;;2.40;2.20;;;18.90;99.90;;;;;;4890075;29;20420;-79
2021/06/24 07:06:55;;;;;;;2.30;2.20;;;19.00;99.90;;;;;;4886814;29;20484;-81
2021/06/24 07:09:20;;;;;;;2.88;2.28;;;19.10;99.90;;;;;;4867496;29;20418;-81
2021/06/24 07:11:46;;;;;;;2.73;2.53;;;19.20;99.90;;;;;;4882752;29;20405;-81
2021/06/24 07:14:12;;;;;;;2.30;2.13;;;19.30;99.90;;;;;;4895034;29;20415;-80
2021/06/24 07:16:37;;;;;;;2.70;2.50;;;19.50;99.90;;;;;;4879886;29;20401;-80
2021/06/24 07:19:03;;;;;;;2.30;2.20;;;19.70;99.90;;;;;;4893138;29;20437;-82
2021/06/24 07:21:29;;;;;;;2.40;2.20;;;19.90;99.90;;;;;;4904929;29;20425;-81
2021/06/24 07:23:54;;;;;;;1.98;1.88;;;19.90;99.90;;;;;;4897355;29;20410;-84
2021/06/24 07:26:20;;;;;;;2.20;2.00;;;20.10;99.90;;;;;;4892708;29;20405;-80
2021/06/24 07:28:46;;;;;;;3.30;2.13;;;20.30;99.90;;;;;;4870560;29;20449;-81
2021/06/24 07:31:11;;;;;;;2.33;2.00;;;20.50;99.90;;;;;;4905014;29;20405;-83
2021/06/24 07:33:37;;;;;;;2.90;2.33;;;20.80;99.90;;;;;;4887946;29;20413;-81
2021/06/24 07:36:03;;;;;;;2.30;2.10;;;20.60;99.90;;;;;;4907403;29;20408;-85
2021/06/24 07:38:29;;;;;;;2.20;2.00;;;20.60;99.90;;;;;;4886752;29;20521;-84
2021/06/24 07:40:55;;;;;;;2.33;2.10;;;20.60;99.90;;;;;;4885766;29;20494;-81
2021/06/24 07:43:21;;;;;;;4.67;2.30;;;20.90;99.90;;;;;;4870259;29;20409;-83
2021/06/24 07:45:46;;;;;;;2.15;2.05;;;21.10;99.90;;;;;;4889604;29;20416;-81
2021/06/24 07:48:12;;;;;;;3.20;2.70;;;21.30;99.90;;;;;;4901725;29;20445;-82
2021/06/24 07:50:38;;;;;;;5.10;2.40;;;21.30;99.90;;;;;;4892403;29;20794;-83
2021/06/24 07:53:05;;;;;;;2.58;2.20;;;21.30;99.90;;;;;;4882128;29;20414;-81
2021/06/24 07:55:34;;;;;;;2.00;1.90;;;21.30;99.90;;;;;;4889594;29;20415;-82
2021/06/24 07:58:06;;;;;;;2.20;2.00;;;21.50;99.90;;;;;;4890135;29;20401;-80
2021/06/24 08:00:32;;;;;;;2.10;1.90;;;21.60;99.90;;;;;;4885945;29;20412;-81
2021/06/24 08:02:58;;;;;;;1.95;1.85;;;21.90;99.90;;;;;;4885833;29;20423;-81
2021/06/24 08:05:24;;;;;;;1.93;1.73;;;21.90;99.90;;;;;;4874239;29;20402;-81
2021/06/24 08:07:49;;;;;;;2.50;2.30;;;22.00;99.90;;;;;;4869255;29;20411;-84
2021/06/24 08:10:16;;;;;;;1.83;1.73;;;21.80;99.90;;;;;;4902348;29;20423;-80
2021/06/24 08:12:42;;;;;;;2.27;2.07;;;21.70;99.90;;;;;;4908942;29;20492;-81
2021/06/24 08:15:16;;;;;;;1.95;1.80;;;21.60;99.90;;;;;;4894347;29;20413;-87
2021/06/24 08:17:45;;;;;;;2.38;1.83;;;21.70;99.90;;;;;;4878404;29;20406;-82
2021/06/24 08:20:11;;;;;;;1.85;1.75;;;21.70;99.90;;;;;;4872979;29;20405;-81
2021/06/24 08:22:37;;;;;;;3.03;1.97;;;21.80;99.90;;;;;;4868316;29;20402;-81
2021/06/24 08:25:03;;;;;;;2.50;1.75;;;22.00;99.90;;;;;;4890902;29;20461;-83
2021/06/24 08:27:29;;;;;;;2.28;1.73;;;22.30;99.90;;;;;;4891739;29;20419;-81
2021/06/24 08:29:56;;;;;;;2.83;1.90;;;22.60;99.90;;;;;;4900477;29;20419;-81
2021/06/24 08:32:22;;;;;;;1.80;1.70;;;22.90;99.90;;;;;;4878142;29;20405;-82
2021/06/24 08:34:48;;;;;;;2.20;2.00;;;22.90;99.90;;;;;;4884884;29;20416;-85
2021/06/24 08:37:14;;;;;;;2.00;1.80;;;23.20;99.90;;;;;;4891110;29;20426;-86
2021/06/24 08:39:42;;;;;;;4.85;2.03;;;23.40;99.90;;;;;;4883991;29;20406;-89
2021/06/24 08:42:11;;;;;;;1.67;1.58;;;23.00;99.90;;;;;;4888680;29;20424;-89
2021/06/24 08:44:46;;;;;;;2.58;1.70;;;23.10;99.90;;;;;;4907619;29;20429;-84
2021/06/24 08:47:19;;;;;;;1.77;1.67;;;23.30;99.90;;;;;;4893945;29;20956;-81
2021/06/24 08:49:49;;;;;;;4.03;1.90;;;23.40;99.90;;;;;;4909931;29;20422;-81
2021/06/24 08:52:24;;;;;;;5.03;2.00;;;23.80;99.90;;;;;;4883686;29;20411;-86
2021/06/24 08:54:53;;;;;;;1.60;1.50;;;23.50;99.90;;;;;;4913035;29;20440;-84
2021/06/24 08:57:22;;;;;;;1.92;1.58;;;23.60;99.90;;;;;;4881125;29;20421;-82
2021/06/24 08:59:54;;;;;;;1.60;1.40;;;23.70;99.90;;;;;;4898930;29;20413;-81
2021/06/24 09:02:43;;;;;;;1.57;1.47;;;24.00;99.90;;;;;;4873806;29;20401;-85
2021/06/24 09:05:23;;;;;;;1.60;1.50;;;24.30;99.90;;;;;;4865680;29;20398;-79
2021/06/24 09:08:02;;;;;;;1.60;1.50;;;24.30;99.90;;;;;;4860132;29;20420;-80
2021/06/24 09:23:42;;;;;;;3.00;1.80;;;25.40;99.90;;;;;;4820050;29;20445;-79
2021/06/24 09:35:29;;;;;;;2.10;1.77;;;25.30;99.90;;;;;;4908374;29;20562;-86
2021/06/24 09:53:47;;;;;;;1.88;1.73;;;25.60;99.90;;;;;;4986120;23;20479;-85
2021/06/24 09:57:32;;;;;;;1.73;1.63;;;25.70;99.90;;;;;;4917532;28;20698;-86
2021/06/24 10:07:22;;;;;;;2.10;1.90;;;25.60;99.90;;;;;;4974559;28;20411;-80
2021/06/24 10:10:03;;;;;;;5.10;2.50;;;25.70;99.90;;;;;;4945944;28;20487;-83
2021/06/24 10:13:35;;;;;;;1.95;1.85;;;25.70;99.90;;;;;;4907266;28;20416;-81
2021/06/24 10:20:35;;;;;;;3.03;1.80;;;25.80;99.90;;;;;;4965386;28;20398;-85
2021/06/24 10:27:11;;;;;;;4.00;1.80;;;25.70;99.90;;;;;;4931699;29;20471;-84
2021/06/24 10:30:22;;;;;;;1.80;1.70;;;25.80;99.90;;;;;;4925146;29;20426;-82
2021/06/24 10:33:46;;;;;;;2.13;1.92;;;25.80;99.90;;;;;;4881233;29;20830;-80
2021/06/24 10:37:22;;;;;;;3.25;1.90;;;26.10;99.90;;;;;;4878338;29;20949;-81
2021/06/24 10:40:26;;;;;;;3.28;1.90;;;25.80;99.90;;;;;;4874103;29;20417;-80
2021/06/24 10:47:45;;;;;;;2.08;1.88;;;25.80;99.90;;;;;;4868798;29;20433;-79
2021/06/24 10:51:22;;;;;;;2.03;1.83;;;26.00;99.90;;;;;;4909444;29;20868;-81
2021/06/24 11:02:06;;;;;;;1.95;1.67;;;25.90;99.90;;;;;;4896278;29;20512;-82
2021/06/24 11:05:48;;;;;;;2.03;1.93;;;26.10;99.90;;;;;;4893486;29;20405;-80
2021/06/24 11:09:18;;;;;;;2.22;1.77;;;26.30;99.90;;;;;;4923646;29;20407;-80
2021/06/24 11:12:57;;;;;;;1.70;1.60;;;26.60;99.90;;;;;;4884015;29;20407;-80
2021/06/24 11:15:56;;;;;;;4.70;1.98;;;26.40;99.90;;;;;;4874616;29;20503;-79
2021/06/24 11:18:45;;;;;;;2.05;1.88;;;26.10;99.90;;;;;;4905493;29;20423;-81
2021/06/24 11:21:33;;;;;;;2.07;1.73;;;26.00;99.90;;;;;;4906692;29;20709;-80
2021/06/24 11:24:24;;;;;;;1.83;1.70;;;26.50;99.90;;;;;;4910884;29;20458;-80
2021/06/24 11:26:57;;;;;;;2.40;2.13;;;26.70;99.90;;;;;;4910514;29;20408;-80
2021/06/24 11:29:34;;;;;;;1.92;1.77;;;27.10;99.90;;;;;;4911527;29;20415;-81
2021/06/24 11:32:38;;;;;;;2.10;1.90;;;27.20;99.90;;;;;;4898435;29;20415;-79
2021/06/24 11:36:08;;;;;;;2.08;1.88;;;27.20;99.90;;;;;;4903497;29;20908;-80
2021/06/24 11:39:06;;;;;;;1.80;1.70;;;26.50;99.90;;;;;;4912579;29;20448;-81
2021/06/24 12:03:36;;;;;;;2.10;1.70;;;26.40;99.90;;;;;;4895509;29;20432;-79
2021/06/24 12:07:09;;;;;;;1.73;1.63;;;26.50;99.90;;;;;;4915353;29;20836;-81
2021/06/24 12:10:52;;;;;;;1.77;1.67;;;26.50;99.90;;;;;;4922328;29;20464;-83
2021/06/24 12:13:48;;;;;;;2.30;1.75;;;26.50;99.90;;;;;;4897902;29;20422;-83
2021/06/24 12:24:43;;;;;;;2.40;1.60;;;26.50;99.90;;;;;;4906818;29;20417;-81
2021/06/24 12:28:12;;;;;;;4.80;1.80;;;26.10;99.90;;;;;;4905568;29;20485;-81
2021/06/24 12:32:02;;;;;;;1.63;1.52;;;26.50;99.90;;;;;;4878832;29;20450;-80
2021/06/24 12:35:34;;;;;;;1.60;1.50;;;26.50;99.90;;;;;;4913183;29;20416;-81
2021/06/24 12:38:59;;;;;;;1.90;1.63;;;26.60;99.90;;;;;;4906272;29;20418;-82
2021/06/24 12:41:53;;;;;;;2.47;1.40;;;26.30;99.90;;;;;;4886555;29;20434;-79
2021/06/24 12:48:57;;;;;;;5.20;1.75;;;26.20;99.90;;;;;;4902024;29;20430;-83
2021/06/24 13:12:21;;;;;;;1.80;1.70;;;26.10;99.90;;;;;;4898060;29;20893;-80
2021/06/24 13:15:44;;;;;;;1.95;1.70;;;25.80;99.90;;;;;;4886352;29;20411;-81
2021/06/24 13:27:02;;;;;;;1.70;1.60;;;25.50;99.90;;;;;;4923155;29;20409;-80
2021/06/24 13:30:18;;;;;;;1.77;1.50;;;25.60;99.90;;;;;;4883467;29;20415;-81
2021/06/24 13:37:16;;;;;;;1.67;1.58;;;25.70;99.90;;;;;;4886808;29;20998;-81
2021/06/24 13:40:37;;;;;;;1.88;1.73;;;25.70;99.90;;;;;;4896587;29;20424;-80
2021/06/24 13:54:44;;;;;;;1.75;1.65;;;25.50;99.90;;;;;;4895771;29;20412;-80
2021/06/24 13:58:49;;;;;;;1.97;1.77;;;25.70;99.90;;;;;;4838702;29;20439;-80
2021/06/24 14:02:38;;;;;;;1.80;1.70;;;25.60;99.90;;;;;;4854252;29;21045;-79
2021/06/24 14:06:52;;;;;;;1.90;1.70;;;25.60;99.90;;;;;;4876427;29;20428;-80
2021/06/24 14:10:33;;;;;;;1.85;1.63;;;25.50;99.90;;;;;;4837031;29;20445;-79
2021/06/24 14:14:33;;;;;;;1.80;1.70;;;25.60;99.90;;;;;;4903409;29;20400;-82
2021/06/24 14:25:30;;;;;;;1.90;1.75;;;25.40;99.90;;;;;;4930077;29;20490;-79
2021/06/24 14:27:56;;;;;;;1.75;1.65;;;25.40;99.90;;;;;;4887789;29;20440;-80
2021/06/24 14:30:22;;;;;;;1.70;1.48;;;25.30;99.90;;;;;;4919363;29;20403;-79
2021/06/24 14:32:49;;;;;;;1.60;1.50;;;25.40;99.90;;;;;;4868855;29;20906;-80
2021/06/24 14:35:15;;;;;;;1.60;1.50;;;25.30;99.90;;;;;;4899305;29;20406;-79
2021/06/24 14:37:41;;;;;;;1.60;1.50;;;25.20;99.90;;;;;;4899774;29;20496;-79
2021/06/24 14:40:08;;;;;;;1.75;1.65;;;25.30;99.90;;;;;;4892279;29;20469;-79
2021/06/24 14:42:34;;;;;;;1.50;1.40;;;25.30;99.90;;;;;;4898784;29;20493;-80
2021/06/24 14:45:00;;;;;;;2.00;1.90;;;25.20;99.90;;;;;;4884167;29;20407;-79
2021/06/24 14:47:26;;;;;;;1.73;1.63;;;25.30;99.90;;;;;;4917247;29;20415;-78
2021/06/24 14:49:52;;;;;;;2.20;1.70;;;25.30;99.90;;;;;;4901316;29;20435;-79
2021/06/24 14:52:19;;;;;;;3.17;1.55;;;25.00;99.90;;;;;;4894769;29;20422;-79
2021/06/24 14:54:45;;;;;;;1.67;1.57;;;25.10;99.90;;;;;;4883280;29;20472;-79
2021/06/24 14:57:13;;;;;;;1.52;1.42;;;25.20;99.90;;;;;;4902910;29;20411;-81
2021/06/24 14:59:40;;;;;;;1.65;1.55;;;25.20;99.90;;;;;;4874431;29;20542;-81
2021/06/24 15:02:09;;;;;;;1.60;1.50;;;25.00;99.90;;;;;;4863392;29;20744;-79
2021/06/24 15:04:40;;;;;;;1.52;1.42;;;25.00;99.90;;;;;;4906153;29;20512;-80
2021/06/24 15:07:11;;;;;;;1.70;1.60;;;25.00;99.90;;;;;;4884493;29;20411;-79
2021/06/24 15:10:16;;;;;;;4.10;1.90;;;24.80;99.90;;;;;;4891858;29;20429;-79
2021/06/24 15:12:54;;;;;;;1.60;1.50;;;24.70;99.90;;;;;;4868880;29;20413;-79
2021/06/24 15:15:31;;;;;;;1.73;1.58;;;24.40;99.90;;;;;;4894831;29;20455;-80
2021/06/24 15:18:07;;;;;;;1.80;1.70;;;23.90;99.90;;;;;;4889146;29;20485;-86
2021/06/24 15:20:39;;;;;;;1.70;1.60;;;23.80;99.90;;;;;;4873676;29;20420;-82
2021/06/24 15:23:14;;;;;;;1.80;1.70;;;23.70;99.90;;;;;;4905921;29;20408;-82
2021/06/24 15:25:48;;;;;;;1.80;1.70;;;23.70;99.90;;;;;;4884927;29;20486;-80
2021/06/24 15:28:21;;;;;;;1.50;1.40;;;23.70;99.90;;;;;;4900394;29;21187;-80
2021/06/24 15:30:57;;;;;;;1.60;1.50;;;23.80;99.90;;;;;;4883595;29;20398;-81
2021/06/24 15:33:26;;;;;;;1.73;1.63;;;23.80;99.90;;;;;;4873985;29;20510;-82
2021/06/24 15:35:57;;;;;;;1.75;1.65;;;23.80;99.90;;;;;;4882986;29;20416;-83
2021/06/24 15:38:30;;;;;;;1.80;1.67;;;23.60;99.90;;;;;;4892760;29;20420;-79
2021/06/24 15:41:06;;;;;;;1.80;1.60;;;23.90;99.90;;;;;;4874039;29;20515;-81
2021/06/24 15:43:44;;;;;;;1.80;1.70;;;23.90;99.90;;;;;;4891687;29;20476;-83
2021/06/24 15:46:19;;;;;;;1.50;1.40;;;23.90;99.90;;;;;;4907901;29;20408;-79
2021/06/24 15:49:17;;;;;;;1.63;1.50;;;23.90;99.90;;;;;;4873578;29;20423;-81
2021/06/24 15:51:52;;;;;;;2.78;1.85;;;23.90;99.90;;;;;;4909881;29;20396;-81
2021/06/24 15:54:27;;;;;;;2.20;1.73;;;23.80;99.90;;;;;;4880602;29;21051;-81
2021/06/24 15:59:55;;;;;;;1.95;1.50;;;23.90;99.90;;;;;;4901837;29;20412;-84
2021/06/24 16:02:36;;;;;;;1.70;1.60;;;23.90;99.90;;;;;;4870971;29;20842;-81
2021/06/24 16:05:07;;;;;;;1.90;1.80;;;23.80;99.90;;;;;;4899273;29;20822;-80
2021/06/24 16:07:43;;;;;;;1.73;1.63;;;23.90;99.90;;;;;;4891264;29;20418;-80